createdAt,value
2018-07-25T00:30:21.301Z,29.40
2018-07-25T00:32:50.277Z,26.00
2018-07-25T00:35:16.866Z,30.20
2018-07-25T00:37:43.352Z,29.80
2018-07-25T00:40:10.039Z,27.60
2018-07-25T00:42:36.839Z,33.20
2018-07-25T00:45:03.284Z,31.20
2018-07-25T00:47:29.791Z,29.60
2018-07-25T00:49:59.815Z,30.80
2018-07-25T00:52:29.617Z,32.00
2018-07-25T00:54:57.652Z,26.40
2018-07-25T00:57:24.149Z,25.00
2018-07-25T00:59:50.632Z,23.80
2018-07-25T01:02:17.528Z,27.00
2018-07-25T01:04:43.969Z,28.00
2018-07-25T01:07:10.430Z,26.20
2018-07-25T01:09:36.942Z,25.40
2018-07-25T01:12:04.903Z,29.40
2018-07-25T01:14:31.370Z,27.80
2018-07-25T01:16:57.820Z,23.60
2018-07-25T01:19:24.323Z,18.80
2018-07-25T01:21:51.175Z,26.80
2018-07-25T01:24:17.678Z,29.60
2018-07-25T01:26:44.151Z,28.60
2018-07-25T01:29:12.016Z,27.80
2018-07-25T01:31:38.522Z,29.60
2018-07-25T01:34:04.981Z,28.20
2018-07-25T01:36:31.489Z,25.00
2018-07-25T01:38:59.270Z,32.00
2018-07-25T01:41:25.722Z,24.00
2018-07-25T01:43:52.185Z,24.80
2018-07-25T01:46:19.176Z,23.60
2018-07-25T01:48:46.122Z,27.60
2018-07-25T01:51:12.588Z,26.00
2018-07-25T01:53:39.099Z,27.00
2018-07-25T01:56:05.650Z,30.20
2018-07-25T01:58:32.119Z,28.60
2018-07-25T02:00:58.587Z,23.60
2018-07-25T02:03:25.101Z,24.40
2018-07-25T02:05:52.055Z,23.00
2018-07-25T02:08:18.659Z,26.40
2018-07-25T02:10:45.187Z,31.40
2018-07-25T02:13:11.671Z,25.20
2018-07-25T02:15:38.652Z,23.60
2018-07-25T02:18:05.157Z,28.40
2018-07-25T02:20:31.618Z,27.20
2018-07-25T02:22:58.093Z,27.80
2018-07-25T02:25:26.040Z,29.60
2018-07-25T02:27:52.540Z,26.80
2018-07-25T02:30:19.029Z,29.80
2018-07-25T02:32:45.523Z,28.00
2018-07-25T02:35:12.400Z,29.40
2018-07-25T02:37:39.654Z,26.80
2018-07-25T02:40:06.159Z,25.40
2018-07-25T02:42:32.710Z,30.60
2018-07-25T02:44:59.592Z,27.80
2018-07-25T02:47:26.081Z,29.00
2018-07-25T02:49:52.545Z,27.20
2018-07-25T02:52:19.371Z,26.20
2018-07-25T02:54:45.880Z,28.00
2018-07-25T02:57:12.349Z,31.80
2018-07-25T02:59:39.307Z,27.80
2018-07-25T03:02:05.772Z,25.80
2018-07-25T03:04:32.287Z,25.60
2018-07-25T03:06:58.901Z,36.80
2018-07-25T03:09:25.791Z,21.60
2018-07-25T03:11:52.299Z,26.80
2018-07-25T03:14:18.779Z,28.20
2018-07-25T03:16:45.271Z,30.60
2018-07-25T03:19:12.260Z,22.60
2018-07-25T03:21:38.753Z,27.60
2018-07-25T03:24:05.249Z,26.80
2018-07-25T03:26:31.731Z,25.80
2018-07-25T03:28:58.244Z,28.20
2018-07-25T03:31:24.785Z,22.20
2018-07-25T03:33:55.952Z,27.20
2018-07-25T03:36:23.491Z,30.00
2018-07-25T03:38:50.448Z,26.40
2018-07-25T03:41:16.923Z,31.80
2018-07-25T03:43:43.896Z,29.00
2018-07-25T03:46:10.516Z,25.40
2018-07-25T03:48:36.986Z,27.40
2018-07-25T03:51:03.474Z,29.40
2018-07-25T03:53:30.474Z,28.20
2018-07-25T03:55:56.927Z,28.00
2018-07-25T03:58:23.394Z,30.20
2018-07-25T04:00:49.860Z,34.20
2018-07-25T04:03:16.822Z,31.40
2018-07-25T04:05:43.370Z,26.80
2018-07-25T04:08:10.624Z,26.60
2018-07-25T04:10:37.528Z,32.00
2018-07-25T04:13:04.009Z,31.40
2018-07-25T04:15:30.507Z,26.40
2018-07-25T04:17:57.425Z,33.40
2018-07-25T04:20:23.921Z,27.60
2018-07-25T04:22:50.419Z,24.60
2018-07-25T04:25:16.943Z,28.20
2018-07-25T04:27:43.769Z,32.80
2018-07-25T04:30:10.408Z,30.80
2018-07-25T04:32:36.868Z,25.40
2018-07-25T04:35:03.330Z,29.20
2018-07-25T04:37:30.232Z,28.80
2018-07-25T04:39:56.700Z,27.20
2018-07-25T04:42:23.460Z,26.80
2018-07-25T04:44:50.426Z,24.00
2018-07-25T04:47:16.932Z,26.00
2018-07-25T04:49:43.419Z,30.00
2018-07-25T04:52:10.518Z,30.00
2018-07-25T04:54:37.043Z,30.80
2018-07-25T04:57:03.679Z,32.60
2018-07-25T04:59:30.209Z,34.80
2018-07-25T05:01:56.757Z,30.40
2018-07-25T05:04:23.685Z,32.20
2018-07-25T05:06:50.207Z,32.40
2018-07-25T05:09:16.696Z,31.20
2018-07-25T05:11:43.634Z,31.40
2018-07-25T05:14:10.103Z,39.80
2018-07-25T05:16:36.588Z,33.00
2018-07-25T05:19:03.468Z,39.60
2018-07-25T05:21:29.941Z,33.80
2018-07-25T05:23:56.537Z,26.20
2018-07-25T05:26:23.497Z,29.40
2018-07-25T05:28:49.995Z,32.20
2018-07-25T05:31:16.488Z,36.00
2018-07-25T05:33:43.274Z,32.20
2018-07-25T05:36:10.776Z,35.00
2018-07-25T05:38:37.262Z,27.20
2018-07-25T05:41:04.040Z,27.40
2018-07-25T05:43:30.504Z,29.20
2018-07-25T05:45:57.761Z,27.00
2018-07-25T05:48:24.554Z,40.80
2018-07-25T05:50:51.029Z,38.00
2018-07-25T05:53:17.485Z,40.60
2018-07-25T05:55:44.238Z,40.40
2018-07-25T05:58:10.698Z,38.20
2018-07-25T06:00:37.172Z,38.20
2018-07-25T06:03:04.070Z,32.80
2018-07-25T06:05:30.631Z,36.80
2018-07-25T06:07:57.143Z,35.80
2018-07-25T06:10:24.781Z,37.80
2018-07-25T06:12:51.300Z,39.00
2018-07-25T06:15:17.826Z,38.40
2018-07-25T06:17:44.589Z,40.60
2018-07-25T06:20:11.060Z,34.60
2018-07-25T06:22:37.528Z,37.00
2018-07-25T06:25:05.127Z,39.20
2018-07-25T06:27:31.635Z,36.20
2018-07-25T06:29:58.369Z,36.60
2018-07-25T06:32:25.154Z,35.60
2018-07-25T06:34:51.681Z,34.00
2018-07-25T06:37:18.223Z,37.80
2018-07-25T06:39:45.076Z,31.40
2018-07-25T06:42:12.629Z,30.20
2018-07-25T06:44:39.162Z,31.80
2018-07-25T06:47:07.009Z,33.60
2018-07-25T06:49:34.135Z,34.40
2018-07-25T06:52:00.677Z,32.40
2018-07-25T06:54:28.685Z,31.40
2018-07-25T06:56:55.270Z,34.40
2018-07-25T06:59:21.804Z,32.80
2018-07-25T07:01:48.685Z,32.80
2018-07-25T07:04:15.229Z,29.00
2018-07-25T07:06:41.812Z,31.20
2018-07-25T07:09:08.680Z,31.60
2018-07-25T07:11:36.036Z,32.60
2018-07-25T07:14:02.589Z,25.60
2018-07-25T07:16:29.420Z,32.80
2018-07-25T07:18:55.960Z,28.20
2018-07-25T07:21:22.501Z,28.40
2018-07-25T07:23:49.428Z,30.00
2018-07-25T07:26:15.948Z,27.00
2018-07-25T07:28:42.464Z,25.60
2018-07-25T07:31:09.902Z,34.20
2018-07-25T07:33:36.457Z,32.40
2018-07-25T07:36:02.980Z,30.20
2018-07-25T07:38:29.854Z,27.80
2018-07-25T07:40:57.046Z,28.60
2018-07-25T07:43:23.580Z,26.80
2018-07-25T07:45:50.416Z,28.60
2018-07-25T07:48:16.929Z,28.80
2018-07-25T07:50:43.453Z,27.40
2018-07-25T07:53:10.295Z,27.20
2018-07-25T07:55:37.837Z,28.20
2018-07-25T07:58:04.397Z,24.40
2018-07-25T08:00:32.141Z,23.40
2018-07-25T08:02:59.268Z,24.60
2018-07-25T08:05:26.090Z,23.20
2018-07-25T08:07:52.609Z,26.80
2018-07-25T08:10:20.116Z,24.80
2018-07-25T08:12:47.893Z,27.00
2018-07-25T08:15:14.440Z,28.40
2018-07-25T08:17:43.136Z,28.60
2018-07-25T08:20:10.034Z,27.80
2018-07-25T08:22:36.772Z,30.20
2018-07-25T08:25:04.438Z,30.80
2018-07-25T08:27:31.333Z,28.20
2018-07-25T08:29:59.052Z,32.20
2018-07-25T08:32:25.713Z,28.60
2018-07-25T08:34:52.645Z,27.60
2018-07-25T08:37:19.214Z,28.00
2018-07-25T08:39:45.812Z,28.40
2018-07-25T08:42:12.873Z,26.20
2018-07-25T08:44:40.361Z,26.60
2018-07-25T08:47:07.940Z,27.20
2018-07-25T08:49:35.746Z,25.20
2018-07-25T08:52:02.394Z,27.00
2018-07-25T08:54:32.439Z,24.80
2018-07-25T08:56:59.960Z,30.60
2018-07-25T08:59:26.497Z,26.60
2018-07-25T09:01:53.086Z,26.60
2018-07-25T09:04:20.000Z,31.00
2018-07-25T09:06:46.577Z,27.20
2018-07-25T09:09:17.384Z,26.00
2018-07-25T09:11:44.234Z,29.80
2018-07-25T09:14:10.801Z,24.40
